Terminal Aerodrome Forecast
Issued by NWS

Home | Current Version | Previous Version | Text Only | Print | Product List | Glossary Off
Versions: 1 2 3 4 5 6 7 8 9 10 11 12 13 14 15 16 17 18 19 20 21 22 23

051
FTUS43 KBIS 280520
TAFJMS
TAF
KJMS 280520Z 2806/2906 11007KT 3/4SM BR SCT035
     FM280700 07006KT 1/4SM FG BKN002
     FM281200 VRB03KT 1/2SM FG SCT008
     FM281600 07006KT P6SM SCT030
     FM281900 09007KT P6SM SCT200=

USA.gov is the U.S. government's official web portal to all federal, state and local government web resources and services.